< < Back
Terminal Aerodrome Forecast


Current Version              Previous Versions:   1  2  3  4  5  6  7  8  9  

Terminal Aerodrome Forecast

054
FTUS44 KMOB 300547
TAFMOB
TAF
KMOB 300547Z 3006/3106 04005KT P6SM SKC
     FM301500 06009KT P6SM FEW250
     FM310000 06004KT P6SM SKC=

Latest METAR

455
SAUS80 KWBC 301700
MTRMOB
METAR KMOB 301656Z 09010G16KT 10SM BKN035 32/22 A2999 RMK AO2 SLP150
T03220222


USA.gov is the U.S. government's official web portal to all federal, state and local government web resources and services.